createdAt,value
2018-08-13T00:01:10.518Z,20.08
2018-08-13T00:03:39.061Z,20.08
2018-08-13T00:06:07.683Z,20.10
2018-08-13T00:08:36.237Z,20.05
2018-08-13T00:11:04.921Z,20.09
2018-08-13T00:13:33.485Z,20.10
2018-08-13T00:16:03.227Z,20.08
2018-08-13T00:18:31.770Z,20.10
2018-08-13T00:21:26.536Z,20.09
2018-08-13T00:23:55.006Z,20.05
2018-08-13T00:26:23.543Z,20.04
2018-08-13T00:28:52.125Z,20.08
2018-08-13T00:31:20.590Z,20.13
2018-08-13T00:33:49.172Z,20.14
2018-08-13T00:36:57.353Z,20.13
2018-08-13T00:39:25.962Z,20.10
2018-08-13T00:41:54.492Z,20.10
2018-08-13T00:44:22.965Z,20.08
2018-08-13T00:46:51.517Z,20.08
2018-08-13T00:49:20.025Z,20.06
2018-08-13T00:51:48.641Z,20.04
2018-08-13T00:54:17.161Z,20.02
2018-08-13T00:56:45.688Z,20.06
2018-08-13T00:59:14.250Z,20.09
2018-08-13T01:01:42.722Z,20.11
2018-08-13T01:04:26.468Z,20.09
2018-08-13T01:06:55.064Z,20.02
2018-08-13T01:09:23.657Z,19.97
2018-08-13T01:11:52.223Z,19.94
2018-08-13T01:14:21.542Z,19.91
2018-08-13T01:16:50.128Z,19.89
2018-08-13T01:19:18.723Z,19.85
2018-08-13T01:21:47.307Z,19.83
2018-08-13T01:24:15.863Z,19.79
2018-08-13T01:26:44.522Z,19.70
2018-08-13T01:29:13.046Z,19.68
2018-08-13T01:31:41.731Z,19.66
2018-08-13T01:34:17.660Z,19.63
2018-08-13T01:36:46.261Z,19.54
2018-08-13T01:39:14.857Z,19.41
2018-08-13T01:41:43.406Z,19.39
2018-08-13T01:44:11.900Z,19.45
2018-08-13T01:46:40.697Z,19.46
2018-08-13T01:49:09.261Z,19.48
2018-08-13T01:51:37.740Z,19.50
2018-08-13T01:54:06.298Z,19.52
2018-08-13T01:57:25.361Z,19.52
2018-08-13T01:59:53.895Z,19.50
2018-08-13T02:02:22.475Z,19.54
2018-08-13T02:04:50.976Z,19.52
2018-08-13T02:07:19.539Z,19.52
2018-08-13T02:09:48.124Z,19.53
2018-08-13T02:12:16.750Z,19.52
2018-08-13T02:14:45.271Z,19.49
2018-08-13T02:17:13.766Z,19.48
2018-08-13T02:19:42.345Z,19.48
2018-08-13T02:22:10.833Z,19.47
2018-08-13T02:24:39.340Z,19.46
2018-08-13T02:27:07.839Z,19.47
2018-08-13T02:29:36.382Z,19.50
2018-08-13T02:32:05.100Z,19.52
2018-08-13T02:34:33.713Z,19.35
2018-08-13T02:37:02.172Z,19.31
2018-08-13T02:39:30.648Z,19.31
2018-08-13T02:41:59.243Z,19.39
2018-08-13T02:44:27.877Z,19.51
2018-08-13T02:46:56.484Z,19.57
2018-08-13T02:49:25.074Z,19.67
2018-08-13T02:51:53.646Z,19.75
2018-08-13T02:54:22.388Z,19.80
2018-08-13T02:56:50.925Z,19.76
2018-08-13T02:59:20.195Z,19.71
2018-08-13T03:01:51.134Z,19.59
2018-08-13T03:04:22.419Z,19.49
2018-08-13T03:06:53.732Z,19.40
2018-08-13T03:09:25.661Z,19.34
2018-08-13T03:11:57.965Z,19.33
2018-08-13T03:14:28.220Z,19.20
2018-08-13T03:16:59.651Z,19.10
2018-08-13T03:19:30.429Z,19.06
2018-08-13T03:22:01.264Z,19.03
2018-08-13T03:24:32.200Z,18.99
2018-08-13T03:27:02.957Z,18.90
2018-08-13T03:29:33.457Z,18.73
2018-08-13T03:32:04.449Z,18.57
2018-08-13T03:34:33.153Z,18.44
2018-08-13T03:37:03.471Z,18.30
2018-08-13T03:39:34.379Z,18.13
2018-08-13T03:42:05.653Z,17.93
2018-08-13T03:44:36.517Z,17.73
2018-08-13T03:47:07.499Z,17.64
2018-08-13T03:49:38.184Z,17.53
2018-08-13T03:52:10.201Z,17.41
2018-08-13T03:54:41.250Z,17.31
2018-08-13T03:57:12.446Z,17.27
2018-08-13T03:59:58.186Z,17.22
2018-08-13T04:02:56.702Z,17.08
2018-08-13T04:05:27.997Z,16.92
2018-08-13T04:07:58.508Z,16.87
2018-08-13T04:10:28.373Z,16.88
2018-08-13T04:12:58.784Z,16.87
2018-08-13T04:15:28.825Z,16.86
2018-08-13T04:17:59.292Z,16.85
2018-08-13T04:20:30.005Z,16.86
2018-08-13T04:23:00.298Z,16.86
2018-08-13T04:25:30.744Z,16.85
2018-08-13T04:28:01.471Z,16.80
2018-08-13T04:30:31.944Z,16.76
2018-08-13T04:33:03.047Z,16.75
2018-08-13T04:35:33.701Z,16.74
2018-08-13T04:38:04.005Z,16.70
2018-08-13T04:40:34.298Z,16.72
2018-08-13T04:43:05.032Z,16.73
2018-08-13T04:45:36.024Z,16.76
2018-08-13T04:48:19.479Z,16.80
2018-08-13T04:50:49.935Z,16.83
2018-08-13T04:53:21.055Z,16.84
2018-08-13T04:55:51.011Z,16.87
2018-08-13T04:58:21.460Z,16.88
2018-08-13T05:00:52.726Z,16.90
2018-08-13T05:03:23.280Z,16.94
2018-08-13T05:05:53.561Z,16.93
2018-08-13T05:08:23.821Z,16.97
2018-08-13T05:10:54.896Z,17.00
2018-08-13T05:13:25.602Z,17.01
2018-08-13T05:15:56.108Z,17.03
2018-08-13T05:18:26.084Z,17.06
2018-08-13T05:20:57.863Z,17.08
2018-08-13T05:23:37.413Z,17.11
2018-08-13T05:26:07.873Z,17.14
2018-08-13T05:28:38.217Z,17.15
2018-08-13T05:31:08.597Z,17.13
2018-08-13T05:33:37.181Z,17.13
2018-08-13T05:36:05.801Z,17.12
2018-08-13T05:38:50.658Z,17.09
2018-08-13T05:41:19.306Z,17.10
2018-08-13T05:43:47.933Z,17.12
2018-08-13T05:46:22.223Z,17.13
2018-08-13T05:49:06.099Z,17.14
2018-08-13T05:51:34.649Z,17.07
2018-08-13T05:54:03.117Z,17.07
2018-08-13T05:56:31.641Z,17.06
2018-08-13T05:59:00.207Z,17.11
2018-08-13T06:01:28.941Z,17.14
2018-08-13T06:03:57.661Z,17.16
2018-08-13T06:06:26.149Z,17.18
2018-08-13T06:08:54.750Z,17.17
2018-08-13T06:11:23.347Z,17.19
2018-08-13T06:13:51.825Z,17.23
2018-08-13T06:16:20.414Z,17.30
2018-08-13T06:18:48.985Z,17.37
2018-08-13T06:21:17.565Z,17.41
2018-08-13T06:23:46.152Z,17.50
2018-08-13T06:26:14.773Z,17.58
2018-08-13T06:28:43.305Z,17.67
2018-08-13T06:31:11.809Z,17.76
2018-08-13T06:33:40.363Z,17.85
2018-08-13T06:36:08.844Z,17.91
2018-08-13T06:38:37.370Z,17.97
2018-08-13T06:41:05.920Z,18.02
2018-08-13T06:43:34.424Z,18.05
2018-08-13T06:46:02.875Z,18.10
2018-08-13T06:48:31.415Z,18.11
2018-08-13T06:51:00.013Z,18.16
2018-08-13T06:53:28.521Z,18.21
2018-08-13T06:55:57.047Z,18.25
2018-08-13T06:58:25.588Z,18.23
2018-08-13T07:00:54.420Z,18.23
2018-08-13T07:03:22.837Z,18.27
2018-08-13T07:05:51.325Z,18.32
2018-08-13T07:08:19.862Z,18.36
2018-08-13T07:10:48.441Z,18.42
2018-08-13T07:13:16.996Z,18.47
2018-08-13T07:15:45.624Z,18.52
2018-08-13T07:18:14.153Z,18.55
2018-08-13T07:20:42.670Z,18.60
2018-08-13T07:23:11.236Z,18.66
2018-08-13T07:25:39.834Z,18.71
2018-08-13T07:28:08.798Z,18.73
2018-08-13T07:30:37.306Z,18.79
2018-08-13T07:33:05.777Z,18.88
2018-08-13T07:35:34.352Z,18.94
2018-08-13T07:38:02.978Z,18.92
2018-08-13T07:40:32.100Z,18.88
2018-08-13T07:43:00.588Z,18.87
2018-08-13T07:45:29.321Z,18.90
2018-08-13T07:47:57.757Z,18.88
2018-08-13T07:57:09.370Z,19.06
2018-08-13T07:59:37.875Z,19.13
2018-08-13T08:02:06.421Z,19.18
2018-08-13T08:05:02.960Z,19.27
2018-08-13T08:07:31.565Z,19.38
2018-08-13T08:10:00.141Z,19.43
2018-08-13T08:12:28.693Z,19.55
2018-08-13T08:14:57.327Z,19.71
2018-08-13T08:17:25.878Z,19.77
2018-08-13T08:19:54.434Z,19.76
2018-08-13T08:22:22.990Z,19.66
2018-08-13T08:24:52.075Z,19.59
2018-08-13T08:27:20.589Z,19.55
2018-08-13T08:29:49.096Z,19.50
2018-08-13T08:32:17.531Z,19.44
2018-08-13T08:34:46.208Z,19.49
2018-08-13T08:37:14.768Z,19.62
2018-08-13T08:39:43.356Z,19.64
2018-08-13T08:42:11.902Z,19.68
2018-08-13T08:44:40.376Z,19.78
2018-08-13T08:47:08.924Z,19.88
2018-08-13T08:49:37.470Z,19.92
2018-08-13T08:52:06.245Z,19.89
2018-08-13T08:54:34.742Z,19.94
2018-08-13T08:57:03.345Z,20.01
2018-08-13T08:59:31.996Z,20.05
2018-08-13T09:02:00.641Z,20.16
2018-08-13T09:04:29.180Z,20.33
2018-08-13T09:06:57.747Z,20.38
2018-08-13T09:09:26.349Z,20.43
2018-08-13T09:11:54.913Z,20.65
2018-08-13T09:14:23.385Z,20.76
2018-08-13T09:16:57.980Z,20.81
2018-08-13T09:19:37.718Z,20.82
2018-08-13T09:22:17.487Z,20.79
2018-08-13T09:24:57.398Z,20.86
2018-08-13T09:27:37.242Z,20.89
2018-08-13T09:30:26.225Z,20.98
2018-08-13T09:33:06.726Z,21.03
2018-08-13T09:35:35.735Z,21.14
2018-08-13T09:38:04.401Z,21.22
2018-08-13T09:40:33.741Z,21.30
2018-08-13T09:43:02.330Z,21.45
2018-08-13T09:45:30.968Z,21.58
2018-08-13T09:47:59.477Z,21.79
2018-08-13T09:50:28.112Z,21.90
2018-08-13T09:52:56.660Z,21.90
2018-08-13T09:55:29.944Z,21.88
2018-08-13T09:57:58.408Z,21.88
2018-08-13T10:00:32.277Z,21.82
2018-08-13T10:03:00.784Z,21.68
2018-08-13T10:05:29.292Z,21.56
2018-08-13T10:07:57.858Z,21.62
2018-08-13T10:10:26.431Z,21.66
2018-08-13T10:12:54.965Z,21.73
2018-08-13T10:15:23.457Z,21.75
2018-08-13T10:17:52.041Z,21.75
2018-08-13T10:20:21.690Z,21.65
2018-08-13T10:22:50.316Z,21.50
2018-08-13T10:25:18.854Z,21.40
2018-08-13T10:27:47.372Z,21.40
2018-08-13T10:30:16.853Z,21.47
2018-08-13T10:32:45.734Z,21.37
2018-08-13T10:35:14.268Z,21.22
2018-08-13T10:37:43.333Z,21.07
2018-08-13T10:40:14.815Z,20.89
2018-08-13T10:42:43.361Z,20.93
2018-08-13T10:45:12.101Z,21.25
2018-08-13T10:47:40.597Z,21.58
2018-08-13T10:50:11.080Z,21.79
2018-08-13T10:52:53.012Z,22.03
2018-08-13T10:55:21.545Z,22.53
2018-08-13T10:57:50.007Z,22.96
2018-08-13T11:00:18.468Z,23.05
2018-08-13T11:02:47.149Z,23.19
2018-08-13T11:05:16.152Z,23.23
2018-08-13T11:07:44.833Z,23.28
2018-08-13T11:10:14.488Z,23.26
2018-08-13T11:12:43.212Z,23.14
2018-08-13T11:15:14.205Z,22.93
2018-08-13T11:17:43.081Z,22.64
2018-08-13T11:20:11.721Z,22.46
2018-08-13T11:22:41.394Z,22.37
2018-08-13T11:25:11.747Z,22.37
2018-08-13T11:27:40.337Z,22.27
2018-08-13T11:30:11.377Z,22.24
2018-08-13T11:32:39.968Z,22.19
2018-08-13T11:35:08.576Z,22.12
2018-08-13T11:37:37.496Z,22.03
2018-08-13T11:40:09.236Z,22.03
2018-08-13T11:42:37.958Z,22.10
2018-08-13T11:45:06.744Z,22.15
2018-08-13T11:47:35.730Z,22.12
2018-08-13T11:50:07.367Z,22.07
2018-08-13T11:52:35.866Z,22.01
2018-08-13T11:55:04.616Z,22.05
2018-08-13T11:57:33.594Z,22.03
2018-08-13T12:00:02.409Z,22.37
2018-08-13T12:02:31.005Z,22.57
2018-08-13T12:04:59.542Z,22.43
2018-08-13T12:07:28.090Z,22.46
2018-08-13T12:09:56.742Z,22.91
2018-08-13T12:12:25.304Z,23.01
2018-08-13T12:14:54.028Z,23.29
2018-08-13T12:17:22.547Z,23.90
2018-08-13T12:19:51.135Z,24.04
2018-08-13T12:22:19.723Z,23.76
2018-08-13T12:24:48.855Z,23.82
2018-08-13T12:27:49.257Z,24.03
2018-08-13T12:30:18.033Z,24.59
2018-08-13T12:32:46.808Z,24.80
2018-08-13T12:35:15.483Z,24.74
2018-08-13T12:37:44.025Z,25.39
2018-08-13T12:40:12.586Z,25.55
2018-08-13T12:42:41.186Z,25.55
2018-08-13T12:45:12.640Z,25.62
2018-08-13T12:47:41.515Z,25.36
2018-08-13T12:50:12.153Z,24.80
2018-08-13T12:52:40.930Z,24.15
2018-08-13T12:55:10.402Z,23.57
2018-08-13T12:57:39.029Z,23.23
2018-08-13T13:00:10.859Z,22.98
2018-08-13T13:02:39.852Z,22.89
2018-08-13T13:05:09.891Z,22.65
2018-08-13T13:07:38.869Z,21.77
2018-08-13T13:10:10.622Z,20.78
2018-08-13T13:12:40.735Z,20.18
2018-08-13T13:15:12.121Z,19.85
2018-08-13T13:17:40.945Z,19.64
2018-08-13T13:20:13.105Z,19.50
2018-08-13T13:22:48.212Z,19.35
2018-08-13T13:25:17.175Z,19.26
2018-08-13T13:27:45.845Z,19.19
2018-08-13T13:30:15.703Z,19.18
2018-08-13T13:32:59.001Z,19.13
2018-08-13T13:35:27.797Z,19.09
2018-08-13T13:37:56.451Z,19.08
2018-08-13T13:40:25.471Z,19.04
2018-08-13T13:42:54.236Z,19.06
2018-08-13T13:45:22.798Z,19.03
2018-08-13T13:47:51.339Z,19.02
2018-08-13T13:50:20.306Z,19.02
2018-08-13T13:52:48.933Z,19.00
2018-08-13T13:55:17.798Z,19.02
2018-08-13T13:57:46.415Z,19.00
2018-08-13T14:00:19.961Z,19.08
2018-08-13T14:02:49.898Z,19.14
2018-08-13T14:05:18.821Z,19.22
2018-08-13T14:07:47.621Z,19.28
2018-08-13T14:10:22.595Z,19.36
2018-08-13T14:12:54.374Z,19.42
2018-08-13T14:15:23.353Z,19.52
2018-08-13T14:17:52.568Z,19.74
2018-08-13T14:20:21.567Z,20.01
2018-08-13T14:22:50.202Z,20.29
2018-08-13T14:25:29.917Z,20.49
2018-08-13T14:27:58.542Z,20.61
2018-08-13T14:30:28.367Z,20.47
2018-08-13T14:32:57.020Z,20.38
2018-08-13T14:35:26.269Z,20.36
2018-08-13T14:37:54.807Z,20.38
2018-08-13T14:40:23.469Z,20.34
2018-08-13T14:42:52.057Z,20.31
2018-08-13T14:45:20.991Z,20.25
2018-08-13T14:47:51.029Z,20.21
2018-08-13T14:50:19.855Z,20.20
2018-08-13T14:52:49.364Z,20.31
2018-08-13T14:55:19.296Z,20.49
2018-08-13T14:57:47.984Z,20.35
2018-08-13T15:00:19.712Z,20.29
2018-08-13T15:02:48.882Z,20.20
2018-08-13T15:05:17.832Z,20.14
2018-08-13T15:07:47.918Z,20.08
2018-08-13T15:10:19.622Z,20.02
2018-08-13T15:12:48.588Z,19.95
2018-08-13T15:15:17.174Z,19.95
2018-08-13T15:17:45.968Z,19.96
2018-08-13T15:20:16.848Z,19.97
2018-08-13T15:22:45.685Z,20.05
2018-08-13T15:25:14.374Z,20.23
2018-08-13T15:27:43.190Z,20.38
2018-08-13T15:30:21.320Z,20.53
2018-08-13T15:32:50.878Z,20.82
2018-08-13T15:35:19.671Z,21.49
2018-08-13T15:37:48.816Z,21.86
2018-08-13T15:40:17.922Z,21.77
2018-08-13T15:42:47.018Z,21.68
2018-08-13T15:45:17.779Z,21.79
2018-08-13T15:47:47.094Z,22.07
2018-08-13T15:50:18.125Z,22.17
2018-08-13T15:52:47.418Z,22.04
2018-08-13T15:55:16.004Z,21.92
2018-08-13T15:57:45.273Z,21.78
2018-08-13T16:00:16.245Z,22.12
2018-08-13T16:02:45.211Z,22.48
2018-08-13T16:05:13.864Z,22.55
2018-08-13T16:07:45.505Z,22.59
2018-08-13T16:10:15.533Z,22.24
2018-08-13T16:12:44.354Z,21.87
2018-08-13T16:15:12.889Z,21.57
2018-08-13T16:17:42.037Z,21.28
2018-08-13T16:20:16.440Z,21.10
2018-08-13T16:25:13.368Z,20.92
2018-08-13T16:27:43.830Z,20.87
2018-08-13T16:30:44.565Z,20.82
2018-08-13T16:33:13.070Z,20.73
2018-08-13T16:35:42.030Z,20.60
2018-08-13T16:38:11.008Z,20.25
2018-08-13T16:40:39.564Z,19.97
2018-08-13T16:43:14.834Z,19.76
2018-08-13T16:45:44.056Z,19.58
2018-08-13T16:48:13.348Z,19.46
2018-08-13T16:50:42.049Z,19.36
2018-08-13T16:53:10.687Z,19.28
2018-08-13T16:55:39.296Z,19.22
2018-08-13T16:58:08.120Z,19.15
2018-08-13T17:00:41.106Z,19.15
2018-08-13T17:03:09.694Z,19.13
2018-08-13T17:05:39.238Z,19.08
2018-08-13T17:08:08.294Z,19.05
2018-08-13T17:10:37.318Z,19.00
2018-08-13T17:13:06.573Z,18.93
2018-08-13T17:15:35.559Z,18.89
2018-08-13T17:18:05.265Z,18.82
2018-08-13T17:20:38.125Z,18.76
2018-08-13T17:23:06.813Z,18.68
2018-08-13T17:25:35.460Z,18.64
2018-08-13T17:28:04.056Z,18.62
2018-08-13T17:30:32.626Z,18.58
2018-08-13T17:33:02.804Z,18.53
2018-08-13T17:35:36.538Z,18.47
2018-08-13T17:38:41.640Z,18.43
2018-08-13T17:41:10.436Z,18.31
2018-08-13T17:43:39.446Z,18.26
2018-08-13T17:46:09.813Z,18.20
2018-08-13T17:48:39.038Z,18.14
2018-08-13T17:51:08.198Z,18.12
2018-08-13T17:53:37.347Z,18.09
2018-08-13T17:56:06.463Z,18.10
2018-08-13T17:58:34.967Z,18.06
2018-08-13T18:01:03.580Z,18.05
2018-08-13T18:03:32.579Z,18.05
2018-08-13T18:06:01.557Z,18.09
2018-08-13T18:08:30.185Z,18.05
2018-08-13T18:11:29.491Z,18.02
2018-08-13T18:13:58.554Z,17.96
2018-08-13T18:16:27.604Z,17.89
2018-08-13T18:18:56.314Z,17.85
2018-08-13T18:21:26.338Z,17.81
2018-08-13T18:23:55.199Z,17.73
2018-08-13T18:26:32.232Z,17.66
2018-08-13T18:29:01.136Z,17.58
2018-08-13T18:31:30.656Z,17.52
2018-08-13T18:33:59.204Z,17.47
2018-08-13T18:36:28.332Z,17.41
2018-08-13T18:38:56.897Z,17.39
2018-08-13T18:41:25.493Z,17.37
2018-08-13T18:43:54.020Z,17.34
2018-08-13T18:46:23.679Z,17.34
2018-08-13T18:48:52.736Z,17.34
2018-08-13T18:51:21.356Z,17.35
2018-08-13T18:53:50.105Z,17.41
2018-08-13T18:56:18.876Z,17.47
2018-08-13T18:58:47.904Z,17.56
2018-08-13T19:01:16.512Z,17.62
2018-08-13T19:03:45.191Z,17.68
2018-08-13T19:06:13.817Z,17.72
2018-08-13T19:08:42.454Z,17.75
2018-08-13T19:11:11.318Z,17.81
2018-08-13T19:13:39.979Z,17.83
2018-08-13T19:16:08.610Z,17.86
2018-08-13T19:18:37.234Z,17.87
2018-08-13T19:21:06.388Z,17.88
2018-08-13T19:23:35.586Z,17.87
2018-08-13T19:26:04.402Z,17.88
2018-08-13T19:28:33.344Z,17.86
2018-08-13T19:31:01.979Z,17.83
2018-08-13T19:33:30.562Z,17.83
2018-08-13T19:35:59.152Z,17.79
2018-08-13T19:38:27.684Z,17.77
2018-08-13T19:40:56.627Z,17.76
2018-08-13T19:43:25.324Z,17.73
2018-08-13T19:45:54.049Z,17.70
2018-08-13T19:48:22.978Z,17.66
2018-08-13T19:50:51.850Z,17.64
2018-08-13T19:53:20.468Z,17.65
2018-08-13T19:55:48.977Z,17.67
2018-08-13T19:58:17.843Z,17.67
2018-08-13T20:00:46.965Z,17.64
2018-08-13T20:03:16.051Z,17.64
2018-08-13T20:05:44.592Z,17.62
2018-08-13T20:08:14.541Z,17.59
2018-08-13T20:10:43.084Z,17.53
2018-08-13T20:13:12.045Z,17.51
2018-08-13T20:15:40.673Z,17.47
2018-08-13T20:18:09.513Z,17.47
2018-08-13T20:20:38.612Z,17.43
2018-08-13T20:23:07.493Z,17.46
2018-08-13T20:25:36.077Z,17.46
2018-08-13T20:28:04.831Z,17.45
2018-08-13T20:30:33.615Z,17.45
2018-08-13T20:33:02.382Z,17.45
2018-08-13T20:35:30.985Z,17.41
2018-08-13T20:38:00.020Z,17.38
2018-08-13T20:40:29.031Z,17.37
2018-08-13T20:42:57.681Z,17.36
2018-08-13T20:45:27.013Z,17.33
2018-08-13T20:47:55.547Z,17.29
2018-08-13T20:50:25.075Z,17.24
2018-08-13T20:52:54.768Z,17.23
2018-08-13T20:55:25.114Z,17.21
2018-08-13T20:57:53.714Z,17.23
2018-08-13T21:00:24.101Z,17.22
2018-08-13T21:02:52.644Z,17.22
2018-08-13T21:05:21.257Z,17.21
2018-08-13T21:07:50.577Z,17.21
2018-08-13T21:10:20.571Z,17.18
2018-08-13T21:12:49.550Z,17.18
2018-08-13T21:15:18.363Z,17.17
2018-08-13T21:17:47.337Z,17.17
2018-08-13T21:20:26.482Z,17.18
2018-08-13T21:22:55.257Z,17.16
2018-08-13T21:25:24.238Z,17.14
2018-08-13T21:27:52.751Z,17.16
2018-08-13T21:30:21.338Z,17.15
2018-08-13T21:32:50.054Z,17.16
2018-08-13T21:35:21.775Z,17.19
2018-08-13T21:37:50.619Z,17.23
2018-08-13T21:40:19.316Z,17.25
2018-08-13T21:42:48.749Z,17.31
2018-08-13T21:45:17.396Z,17.34
2018-08-13T21:47:46.063Z,17.38
2018-08-13T21:50:17.152Z,17.41
2018-08-13T21:52:46.464Z,17.43
2018-08-13T21:55:15.177Z,17.45
2018-08-13T21:57:43.885Z,17.45
2018-08-13T22:00:49.900Z,17.46
2018-08-13T22:03:18.524Z,17.47
2018-08-13T22:05:47.089Z,17.47
2018-08-13T22:08:15.708Z,17.47
2018-08-13T22:10:44.299Z,17.47
2018-08-13T22:13:12.848Z,17.46
2018-08-13T22:15:41.560Z,17.41
2018-08-13T22:18:14.241Z,17.39
2018-08-13T22:20:42.847Z,17.33
2018-08-13T22:23:11.515Z,17.26
2018-08-13T22:25:42.733Z,17.23
2018-08-13T22:28:12.266Z,17.19
2018-08-13T22:30:40.843Z,17.17
2018-08-13T22:33:10.509Z,17.13
2018-08-13T22:35:39.170Z,17.12
2018-08-13T22:38:08.389Z,17.08
2018-08-13T22:40:37.553Z,17.06
2018-08-13T22:43:06.915Z,17.02
2018-08-13T22:45:35.556Z,16.99
2018-08-13T22:48:04.197Z,16.99
2018-08-13T22:50:32.776Z,16.97
2018-08-13T22:53:01.527Z,16.95
2018-08-13T22:55:30.451Z,16.94
2018-08-13T22:57:59.089Z,16.91
2018-08-13T23:00:27.631Z,16.90
2018-08-13T23:02:56.174Z,16.91
2018-08-13T23:05:26.695Z,16.92
2018-08-13T23:07:55.309Z,16.88
2018-08-13T23:10:24.889Z,16.88
2018-08-13T23:12:54.860Z,16.87
2018-08-13T23:15:23.648Z,16.88
2018-08-13T23:17:53.038Z,16.89
2018-08-13T23:20:24.368Z,16.88
2018-08-13T23:22:59.214Z,16.94
2018-08-13T23:25:28.483Z,16.97
2018-08-13T23:27:58.090Z,16.98
2018-08-13T23:30:26.778Z,16.98
2018-08-13T23:32:56.184Z,16.98
2018-08-13T23:35:25.597Z,16.98
2018-08-13T23:37:54.482Z,16.99
2018-08-13T23:40:23.512Z,16.95
2018-08-13T23:42:52.191Z,16.95
2018-08-13T23:45:23.304Z,16.97
2018-08-13T23:47:51.791Z,16.95
2018-08-13T23:50:22.151Z,16.95
2018-08-13T23:52:52.166Z,16.95
2018-08-13T23:55:28.760Z,16.95
2018-08-13T23:57:57.588Z,16.96
